Time;durP1;ratioP1;P1;durP2;ratioP2;P2;SDS_P1;SDS_P2;PMS_P1;PMS_P2;Temp;Humidity;BMP_temperature;BMP_pressure;BME280_temperature;BME280_humidity;BME280_pressure;Samples;Min_cycle;Max_cycle;Signal;HPM_P1;HPM_P2
2020/12/05 00:00:45;;;;;;;10.82;6.63;;;17.60;32.00;;;;;;8290356;28;20519;-46
2020/12/05 00:04:46;;;;;;;11.43;7.80;;;17.60;32.00;;;;;;8262307;28;20137;-45
2020/12/05 00:08:47;;;;;;;10.70;7.03;;;17.60;32.00;;;;;;8262296;28;20030;-46
2020/12/05 00:12:48;;;;;;;9.73;7.03;;;17.60;32.00;;;;;;8268492;28;20046;-46
2020/12/05 00:16:50;;;;;;;12.30;6.73;;;17.60;32.00;;;;;;8309987;28;20033;-46
2020/12/05 00:20:51;;;;;;;11.65;7.60;;;17.60;32.00;;;;;;8277054;28;20471;-46
2020/12/05 00:24:51;;;;;;;9.07;6.37;;;17.60;32.00;;;;;;8259884;28;20046;-47
2020/12/05 00:28:52;;;;;;;10.07;6.60;;;17.60;32.10;;;;;;8266293;28;20550;-46
2020/12/05 00:32:52;;;;;;;12.20;7.57;;;17.60;32.10;;;;;;8281542;28;20124;-46
2020/12/05 00:36:53;;;;;;;11.13;7.77;;;17.60;32.10;;;;;;8292096;28;20479;-46
2020/12/05 00:40:53;;;;;;;9.70;7.00;;;17.60;32.10;;;;;;8294026;28;20188;-46
2020/12/05 00:44:54;;;;;;;11.73;7.73;;;17.60;32.10;;;;;;8272750;28;20161;-49
2020/12/05 00:48:54;;;;;;;10.87;7.20;;;17.60;32.10;;;;;;8263933;28;20037;-46
2020/12/05 00:52:55;;;;;;;9.03;6.53;;;17.60;32.10;;;;;;8273140;28;20065;-46
2020/12/05 00:56:55;;;;;;;10.23;7.07;;;17.60;32.10;;;;;;8272850;28;20475;-46
2020/12/05 01:00:56;;;;;;;12.23;6.80;;;17.60;32.20;;;;;;8259144;28;20042;-46
2020/12/05 01:04:56;;;;;;;9.10;6.77;;;17.60;32.20;;;;;;8264909;28;20046;-46
2020/12/05 01:08:57;;;;;;;9.10;6.73;;;17.60;32.20;;;;;;8261064;28;20041;-46
2020/12/05 01:12:58;;;;;;;10.97;6.63;;;17.60;32.20;;;;;;8258618;28;20073;-46
2020/12/05 01:16:58;;;;;;;9.63;6.90;;;17.60;32.20;;;;;;8260497;28;20026;-46
2020/12/05 01:20:59;;;;;;;10.47;6.57;;;17.50;32.20;;;;;;8285300;28;20781;-47
2020/12/05 01:24:59;;;;;;;10.23;6.17;;;17.60;32.20;;;;;;8291292;28;20046;-46
2020/12/05 01:29:00;;;;;;;8.37;6.23;;;17.60;32.30;;;;;;8292625;28;20080;-45
2020/12/05 01:33:00;;;;;;;7.20;5.10;;;17.60;32.20;;;;;;8292667;28;20041;-45
2020/12/05 01:37:01;;;;;;;9.80;5.93;;;17.50;32.20;;;;;;8266167;28;20061;-45
2020/12/05 01:41:02;;;;;;;8.13;5.33;;;17.50;32.20;;;;;;8296735;28;20399;-46
2020/12/05 01:45:03;;;;;;;7.17;5.37;;;17.50;32.30;;;;;;8291912;28;20042;-46
2020/12/05 01:49:06;;;;;;;6.43;5.03;;;17.50;32.80;;;;;;8266142;28;20041;-46
2020/12/05 01:53:06;;;;;;;6.50;5.18;;;17.60;32.30;;;;;;8292395;28;20041;-46
2020/12/05 01:57:07;;;;;;;8.10;5.53;;;17.50;32.30;;;;;;8278888;28;20492;-46
2020/12/05 02:01:11;;;;;;;7.90;4.80;;;17.50;32.30;;;;;;8289215;28;20034;-46
2020/12/05 02:05:28;;;;;;;7.47;4.65;;;17.50;32.30;;;;;;8266040;28;20081;-46
2020/12/05 02:09:32;;;;;;;6.97;4.63;;;17.50;32.30;;;;;;8300834;28;20056;-47
2020/12/05 02:13:37;;;;;;;5.93;4.45;;;17.50;32.30;;;;;;8306749;28;20037;-47
2020/12/05 02:17:43;;;;;;;6.60;4.07;;;17.50;32.30;;;;;;8335383;28;20065;-46
2020/12/05 02:21:47;;;;;;;4.65;3.92;;;17.50;32.30;;;;;;8299579;28;20091;-46
2020/12/05 02:25:56;;;;;;;5.97;3.85;;;17.60;32.30;;;;;;8265255;28;20133;-46
2020/12/05 02:29:56;;;;;;;5.88;4.30;;;17.50;32.30;;;;;;8265477;28;20459;-47
2020/12/05 02:33:57;;;;;;;5.23;4.07;;;17.50;32.30;;;;;;8265797;28;20060;-46
2020/12/05 02:38:14;;;;;;;5.37;4.23;;;17.50;32.30;;;;;;8267471;28;20129;-47
2020/12/05 02:42:15;;;;;;;6.82;3.97;;;17.60;32.30;;;;;;8264800;28;20055;-46
2020/12/05 02:46:16;;;;;;;4.60;3.70;;;17.60;32.40;;;;;;8262983;28;20120;-47
2020/12/05 02:50:16;;;;;;;5.50;3.77;;;17.60;32.30;;;;;;8280210;28;20029;-46
2020/12/05 02:54:17;;;;;;;5.40;3.70;;;17.50;32.30;;;;;;8301502;28;20061;-46
2020/12/05 02:58:17;;;;;;;4.37;3.43;;;17.50;32.30;;;;;;8295278;28;20041;-46
2020/12/05 03:02:18;;;;;;;4.37;3.23;;;17.50;32.30;;;;;;8296505;28;20069;-47
2020/12/05 03:06:18;;;;;;;4.43;3.57;;;17.50;32.30;;;;;;8272533;28;20054;-46
2020/12/05 03:10:19;;;;;;;4.07;3.20;;;17.50;32.40;;;;;;8291195;28;20492;-47
2020/12/05 03:14:19;;;;;;;4.87;3.13;;;17.50;32.40;;;;;;8264359;28;20041;-48
2020/12/05 03:18:20;;;;;;;3.50;2.83;;;17.50;32.40;;;;;;8287906;28;20030;-50
2020/12/05 03:22:21;;;;;;;6.03;3.40;;;17.50;32.40;;;;;;8294724;28;20461;-47
2020/12/05 03:26:21;;;;;;;3.50;3.00;;;17.50;32.40;;;;;;8295946;28;20066;-51
2020/12/05 03:30:22;;;;;;;3.63;3.03;;;17.50;32.30;;;;;;8300634;28;20101;-47
2020/12/05 03:34:23;;;;;;;3.42;2.70;;;17.50;32.40;;;;;;8262379;28;20542;-47
2020/12/05 03:38:23;;;;;;;3.33;2.73;;;17.50;32.40;;;;;;8295426;28;20029;-47
2020/12/05 03:42:24;;;;;;;4.50;3.23;;;17.50;32.40;;;;;;8327611;28;20060;-46
2020/12/05 03:46:24;;;;;;;3.77;2.77;;;17.50;32.40;;;;;;8330978;28;20144;-46
2020/12/05 03:50:25;;;;;;;3.23;2.63;;;17.50;32.40;;;;;;8282237;28;20038;-47
2020/12/05 03:54:25;;;;;;;4.03;2.57;;;17.50;32.40;;;;;;8261182;28;20516;-44
2020/12/05 03:58:26;;;;;;;2.97;2.63;;;17.50;32.40;;;;;;8270753;28;20064;-47
2020/12/05 04:02:26;;;;;;;3.17;2.50;;;17.50;32.40;;;;;;8279070;28;20157;-46
2020/12/05 04:06:27;;;;;;;3.07;2.57;;;17.50;32.40;;;;;;8288241;28;20137;-46
2020/12/05 04:10:27;;;;;;;3.43;2.23;;;17.50;32.40;;;;;;8308779;28;20030;-46
2020/12/05 04:14:28;;;;;;;3.13;2.27;;;17.50;33.00;;;;;;8298015;28;20034;-46
2020/12/05 04:18:29;;;;;;;3.17;2.30;;;17.50;33.00;;;;;;8295415;28;20037;-47
2020/12/05 04:22:29;;;;;;;2.40;2.20;;;17.50;32.40;;;;;;8298821;28;20068;-46
2020/12/05 04:26:30;;;;;;;4.57;3.00;;;17.50;32.50;;;;;;8284041;28;20134;-47
2020/12/05 04:30:30;;;;;;;2.73;2.37;;;17.50;32.50;;;;;;8268080;28;20553;-47
2020/12/05 04:34:31;;;;;;;3.40;2.60;;;17.60;32.60;;;;;;8294326;28;20045;-46
2020/12/05 04:38:32;;;;;;;2.67;2.40;;;17.60;32.50;;;;;;8298344;28;20069;-47
2020/12/05 04:42:32;;;;;;;2.87;2.37;;;17.70;32.50;;;;;;8267979;28;20479;-47
2020/12/05 04:46:34;;;;;;;3.23;2.40;;;17.70;32.50;;;;;;8293448;28;20037;-45
2020/12/05 04:50:35;;;;;;;3.13;2.15;;;17.80;32.50;;;;;;8305005;28;20518;-47
2020/12/05 04:54:37;;;;;;;2.45;2.25;;;17.80;32.50;;;;;;8296885;28;20384;-46
2020/12/05 04:58:40;;;;;;;3.78;2.10;;;17.80;32.50;;;;;;8265273;28;20026;-46
2020/12/05 05:02:43;;;;;;;2.97;2.22;;;17.80;32.50;;;;;;8279159;28;20030;-46
2020/12/05 05:06:44;;;;;;;2.20;2.00;;;17.80;33.00;;;;;;8291482;28;20072;-47
2020/12/05 05:10:44;;;;;;;4.10;2.57;;;17.80;32.40;;;;;;8278316;28;20034;-48
2020/12/05 05:14:45;;;;;;;2.78;2.40;;;17.80;32.40;;;;;;8264733;28;20061;-46
2020/12/05 05:18:46;;;;;;;2.53;2.13;;;17.80;32.40;;;;;;8258923;28;20030;-47
2020/12/05 05:22:48;;;;;;;2.57;2.20;;;17.80;32.40;;;;;;8260549;28;20038;-45
2020/12/05 05:27:06;;;;;;;2.10;1.90;;;17.80;32.40;;;;;;8279563;28;20104;-46
2020/12/05 05:31:27;;;;;;;2.25;2.03;;;17.80;32.40;;;;;;8292838;28;22965;-47
2020/12/05 05:35:36;;;;;;;2.35;1.90;;;17.70;32.40;;;;;;8312696;28;20033;-46
2020/12/05 05:39:43;;;;;;;2.30;1.73;;;17.70;32.40;;;;;;8314439;28;20495;-46
2020/12/05 05:43:59;;;;;;;2.00;1.80;;;17.70;32.40;;;;;;8282420;28;20096;-47
2020/12/05 05:48:03;;;;;;;2.85;2.22;;;17.60;32.40;;;;;;8292167;28;20053;-49
2020/12/05 05:52:04;;;;;;;2.20;1.83;;;17.60;32.50;;;;;;8285352;28;20522;-46
2020/12/05 05:56:04;;;;;;;2.77;1.83;;;17.60;32.50;;;;;;8263948;28;20035;-46
2020/12/05 06:00:05;;;;;;;3.60;2.50;;;17.60;32.60;;;;;;8259650;28;20038;-46
2020/12/05 06:04:13;;;;;;;2.27;2.07;;;17.60;32.60;;;;;;8263496;28;20125;-46
2020/12/05 06:08:26;;;;;;;2.72;2.08;;;17.60;32.60;;;;;;8277443;28;20038;-46
2020/12/05 06:12:29;;;;;;;2.80;1.90;;;17.70;32.70;;;;;;8258920;28;20038;-46
2020/12/05 06:16:31;;;;;;;1.60;1.48;;;17.70;32.70;;;;;;8263789;28;20121;-46
2020/12/05 06:20:36;;;;;;;2.15;1.60;;;17.80;32.60;;;;;;8260048;28;20035;-45
2020/12/05 06:25:10;;;;;;;2.00;1.80;;;17.80;32.60;;;;;;8273267;28;20041;-47
2020/12/05 06:29:12;;;;;;;2.10;1.90;;;17.80;32.60;;;;;;8314424;28;20537;-46
2020/12/05 06:33:39;;;;;;;2.88;1.80;;;17.80;32.50;;;;;;8293429;28;20080;-46
2020/12/05 06:37:39;;;;;;;2.13;1.73;;;17.90;32.50;;;;;;8271822;28;20030;-45
2020/12/05 06:41:49;;;;;;;2.03;1.83;;;17.80;32.50;;;;;;8317614;28;20060;-47
2020/12/05 06:45:49;;;;;;;2.28;1.65;;;17.80;32.50;;;;;;8309774;28;20050;-47
2020/12/05 06:49:51;;;;;;;2.10;1.90;;;17.80;32.50;;;;;;8288257;28;20042;-46
2020/12/05 06:53:52;;;;;;;2.38;2.00;;;17.80;32.50;;;;;;8301623;28;20030;-46
2020/12/05 06:58:06;;;;;;;2.30;2.00;;;17.70;32.40;;;;;;8298661;28;20045;-46
2020/12/05 07:02:28;;;;;;;2.80;2.00;;;17.70;32.50;;;;;;8273468;28;20074;-47
2020/12/05 07:06:29;;;;;;;2.92;2.00;;;17.70;32.50;;;;;;8286786;28;20172;-45
2020/12/05 07:10:50;;;;;;;2.87;1.90;;;17.70;32.60;;;;;;8264413;28;20364;-45
2020/12/05 07:14:51;;;;;;;2.35;1.95;;;17.70;32.60;;;;;;8265138;28;20088;-46
2020/12/05 07:18:53;;;;;;;2.40;1.80;;;17.60;32.60;;;;;;8265947;28;20066;-49
2020/12/05 07:22:54;;;;;;;2.67;1.88;;;17.60;32.60;;;;;;8275879;28;20073;-47
2020/12/05 07:26:55;;;;;;;1.90;1.60;;;17.60;32.60;;;;;;8275839;28;20042;-47
2020/12/05 07:30:56;;;;;;;3.03;1.93;;;17.60;32.60;;;;;;8290678;28;20062;-46
2020/12/05 07:34:57;;;;;;;1.77;1.67;;;17.60;32.70;;;;;;8300570;28;20034;-46
2020/12/05 07:38:57;;;;;;;2.20;2.00;;;17.70;32.70;;;;;;8295730;28;20038;-51
2020/12/05 07:42:58;;;;;;;1.87;1.67;;;17.70;32.70;;;;;;8294145;28;20042;-46
2020/12/05 07:46:58;;;;;;;2.80;2.17;;;17.70;32.60;;;;;;8283409;28;20447;-47
2020/12/05 07:50:59;;;;;;;2.27;1.80;;;17.80;32.60;;;;;;8288270;28;20034;-47
2020/12/05 07:55:02;;;;;;;2.10;1.73;;;17.80;32.60;;;;;;8293470;28;20400;-46
2020/12/05 07:59:03;;;;;;;2.78;1.92;;;17.80;32.60;;;;;;8295084;28;20030;-46
2020/12/05 08:03:33;;;;;;;2.08;1.83;;;17.90;33.10;;;;;;8273500;28;20053;-47
2020/12/05 08:07:38;;;;;;;3.05;2.00;;;17.90;32.60;;;;;;8284205;28;20050;-46
2020/12/05 08:11:44;;;;;;;2.20;1.60;;;17.90;32.50;;;;;;8266905;28;20396;-47
2020/12/05 08:15:47;;;;;;;3.17;1.88;;;17.90;33.10;;;;;;8263316;28;27194;-48
2020/12/05 08:19:47;;;;;;;2.50;2.30;;;17.80;32.50;;;;;;8283822;28;20491;-47
2020/12/05 08:23:48;;;;;;;3.17;2.27;;;17.80;32.60;;;;;;8262705;28;20034;-46
2020/12/05 08:27:49;;;;;;;2.60;1.93;;;17.80;32.60;;;;;;8289354;28;20056;-50
2020/12/05 08:31:49;;;;;;;3.30;2.23;;;17.80;32.60;;;;;;8319813;28;20026;-50
2020/12/05 08:35:50;;;;;;;4.10;2.43;;;17.80;32.60;;;;;;8313232;28;20502;-47
2020/12/05 08:39:51;;;;;;;2.70;2.27;;;17.70;32.60;;;;;;8324132;28;20417;-47
2020/12/05 08:43:52;;;;;;;3.53;2.28;;;17.70;32.60;;;;;;8326262;28;20036;-48
2020/12/05 08:47:53;;;;;;;2.50;2.00;;;17.70;32.60;;;;;;8310673;28;20069;-49
2020/12/05 08:51:57;;;;;;;3.33;2.10;;;17.70;32.70;;;;;;8264436;28;20069;-48
2020/12/05 08:55:57;;;;;;;2.17;1.95;;;17.70;32.70;;;;;;8273915;28;20034;-50
2020/12/05 09:00:00;;;;;;;4.03;2.63;;;17.70;32.70;;;;;;8302884;28;20033;-47
2020/12/05 09:04:01;;;;;;;5.43;2.03;;;17.70;32.70;;;;;;8302244;28;20120;-47
2020/12/05 09:08:01;;;;;;;3.23;1.90;;;17.70;32.70;;;;;;8327021;28;20052;-47
2020/12/05 09:12:18;;;;;;;2.10;1.87;;;17.80;32.70;;;;;;8281308;28;20487;-47
2020/12/05 09:16:19;;;;;;;2.20;2.00;;;17.90;32.70;;;;;;8258907;28;20089;-49
2020/12/05 09:20:20;;;;;;;2.07;1.70;;;17.90;32.70;;;;;;8260356;28;20121;-47
2020/12/05 09:24:21;;;;;;;2.45;1.70;;;17.90;32.70;;;;;;8264604;28;20031;-48
2020/12/05 09:28:22;;;;;;;2.40;1.53;;;17.90;32.70;;;;;;8266382;28;20042;-47
2020/12/05 09:32:35;;;;;;;2.33;1.93;;;17.90;32.60;;;;;;8277505;28;20041;-46
2020/12/05 09:36:36;;;;;;;2.70;2.20;;;17.90;32.60;;;;;;8283990;28;20129;-46
2020/12/05 09:40:37;;;;;;;3.43;2.00;;;17.90;32.60;;;;;;8283207;28;20034;-46
2020/12/05 09:44:38;;;;;;;2.97;2.37;;;17.90;32.60;;;;;;8264352;28;20582;-47
2020/12/05 09:48:39;;;;;;;3.05;1.83;;;17.90;32.60;;;;;;8258864;28;20112;-47
2020/12/05 09:52:40;;;;;;;2.73;2.43;;;17.90;32.60;;;;;;8269660;28;20038;-46
2020/12/05 09:56:40;;;;;;;2.95;2.38;;;17.90;32.70;;;;;;8274276;28;20030;-46
2020/12/05 10:00:41;;;;;;;4.93;2.57;;;17.90;32.70;;;;;;8264784;28;20046;-46
2020/12/05 10:04:41;;;;;;;2.60;2.00;;;17.90;32.70;;;;;;8281950;28;20435;-46
2020/12/05 10:08:42;;;;;;;2.67;2.00;;;17.80;32.70;;;;;;8259576;28;20070;-46
2020/12/05 10:12:45;;;;;;;2.13;1.77;;;17.80;32.70;;;;;;8258283;28;20101;-46
2020/12/05 10:16:45;;;;;;;3.72;2.20;;;17.80;32.70;;;;;;8264253;28;20053;-46
2020/12/05 10:20:46;;;;;;;3.73;2.67;;;17.80;32.70;;;;;;8265835;28;20042;-46
2020/12/05 10:24:46;;;;;;;4.47;2.37;;;17.80;32.80;;;;;;8264143;28;20050;-45
2020/12/05 10:28:47;;;;;;;2.73;2.20;;;17.80;32.90;;;;;;8277075;28;20130;-46
2020/12/05 10:32:47;;;;;;;3.50;2.57;;;17.80;32.90;;;;;;8278711;28;20046;-47
2020/12/05 10:36:48;;;;;;;2.83;2.50;;;17.80;32.90;;;;;;8268284;28;20387;-46
2020/12/05 10:40:49;;;;;;;3.30;2.40;;;17.90;32.80;;;;;;8265140;28;20129;-46
2020/12/05 10:44:49;;;;;;;3.13;2.30;;;17.90;32.80;;;;;;8265319;28;20051;-47
2020/12/05 10:48:50;;;;;;;3.70;3.10;;;18.00;32.80;;;;;;8263339;28;20039;-46
2020/12/05 10:52:51;;;;;;;3.07;2.60;;;18.00;32.80;;;;;;8280863;28;20044;-46
2020/12/05 10:56:51;;;;;;;2.83;2.33;;;18.10;32.80;;;;;;8305993;28;20048;-46
2020/12/05 11:00:52;;;;;;;3.40;2.80;;;18.00;32.70;;;;;;8279702;28;20168;-46
2020/12/05 11:04:52;;;;;;;3.43;2.73;;;18.10;32.70;;;;;;8284932;28;20082;-47
2020/12/05 11:08:54;;;;;;;5.23;2.50;;;18.00;32.80;;;;;;8285782;28;20403;-46
2020/12/05 11:12:54;;;;;;;3.00;2.50;;;18.10;32.80;;;;;;8331292;28;20099;-47
2020/12/05 11:16:55;;;;;;;3.10;2.77;;;18.10;32.80;;;;;;8305510;28;20036;-45
2020/12/05 11:20:55;;;;;;;3.90;2.47;;;18.10;32.80;;;;;;8276344;28;20399;-46
2020/12/05 11:24:56;;;;;;;3.60;2.37;;;18.10;32.80;;;;;;8290644;28;20136;-46
2020/12/05 11:28:56;;;;;;;2.37;2.17;;;18.10;32.80;;;;;;8300192;28;20030;-46
2020/12/05 11:32:57;;;;;;;3.30;2.40;;;18.10;32.80;;;;;;8302247;28;20026;-46
2020/12/05 11:36:57;;;;;;;3.57;2.43;;;18.00;32.80;;;;;;8298654;28;20072;-46
2020/12/05 11:40:58;;;;;;;3.67;2.80;;;18.00;32.80;;;;;;8321529;28;20033;-45
2020/12/05 11:44:59;;;;;;;3.23;2.87;;;18.00;32.80;;;;;;8300491;28;20502;-45
2020/12/05 11:49:00;;;;;;;3.40;2.70;;;18.00;32.80;;;;;;8289319;28;20407;-46
2020/12/05 11:53:01;;;;;;;3.60;2.97;;;18.00;32.80;;;;;;8263206;28;20046;-46
2020/12/05 11:57:01;;;;;;;3.20;2.90;;;18.00;32.90;;;;;;8284178;28;20622;-45
2020/12/05 12:01:02;;;;;;;3.53;2.67;;;18.00;32.90;;;;;;8293705;28;20407;-46
2020/12/05 12:05:02;;;;;;;4.07;2.83;;;18.00;32.90;;;;;;8299412;28;20054;-46
2020/12/05 12:09:06;;;;;;;3.80;3.30;;;17.90;32.90;;;;;;8294686;28;20034;-46
2020/12/05 12:13:07;;;;;;;3.92;2.60;;;18.00;32.90;;;;;;8287768;28;20093;-46
2020/12/05 12:17:07;;;;;;;2.87;2.50;;;17.90;32.90;;;;;;8262234;28;20026;-46
2020/12/05 12:21:08;;;;;;;3.00;2.53;;;17.90;33.00;;;;;;8266590;28;20407;-46
2020/12/05 12:25:09;;;;;;;3.67;2.90;;;17.90;33.00;;;;;;8293851;28;20053;-47
2020/12/05 12:29:09;;;;;;;3.10;2.57;;;17.90;33.00;;;;;;8326032;28;20128;-46
2020/12/05 12:33:10;;;;;;;4.03;3.20;;;18.00;33.00;;;;;;8317874;28;20040;-46
2020/12/05 12:37:10;;;;;;;4.83;2.90;;;18.00;33.00;;;;;;8266486;28;20038;-46
2020/12/05 12:41:15;;;;;;;4.87;3.17;;;18.00;33.00;;;;;;8260947;28;20105;-46
2020/12/05 12:45:21;;;;;;;3.60;2.83;;;18.00;33.00;;;;;;8261244;28;20503;-46
2020/12/05 12:49:22;;;;;;;3.08;2.45;;;18.00;33.00;;;;;;8259670;28;20041;-45
2020/12/05 12:53:22;;;;;;;4.33;2.90;;;18.00;33.00;;;;;;8277643;28;20376;-45
2020/12/05 12:57:27;;;;;;;4.37;2.53;;;18.10;33.00;;;;;;8273946;28;20066;-46
2020/12/05 13:01:28;;;;;;;3.50;2.55;;;18.10;33.00;;;;;;8268730;28;20049;-46
2020/12/05 13:05:28;;;;;;;4.83;3.00;;;18.10;33.00;;;;;;8293815;28;20499;-45
2020/12/05 13:09:29;;;;;;;3.60;2.80;;;18.10;33.00;;;;;;8298698;28;20072;-47
2020/12/05 13:13:29;;;;;;;3.63;2.77;;;18.10;33.00;;;;;;8297350;28;20502;-46
2020/12/05 13:17:30;;;;;;;2.80;2.57;;;18.10;33.00;;;;;;8309776;28;20026;-45
2020/12/05 13:21:30;;;;;;;3.87;2.50;;;18.10;32.90;;;;;;8276858;28;20041;-47
2020/12/05 13:25:31;;;;;;;3.23;2.60;;;18.10;33.00;;;;;;8260353;28;20046;-47
2020/12/05 13:29:33;;;;;;;3.00;2.43;;;18.10;33.00;;;;;;8277204;28;20034;-46
2020/12/05 13:33:33;;;;;;;3.72;2.80;;;18.00;33.00;;;;;;8295387;28;20033;-47
2020/12/05 13:37:34;;;;;;;3.20;2.50;;;18.00;33.00;;;;;;8292497;28;20038;-47
2020/12/05 13:41:34;;;;;;;3.93;2.40;;;18.00;33.00;;;;;;8307029;28;20478;-46
2020/12/05 13:45:35;;;;;;;3.07;2.57;;;18.00;33.00;;;;;;8315593;28;20137;-47
2020/12/05 13:49:35;;;;;;;2.83;2.40;;;18.00;33.00;;;;;;8264344;28;20049;-47
2020/12/05 13:53:36;;;;;;;3.33;2.37;;;17.90;33.00;;;;;;8276075;28;20041;-47
2020/12/05 13:57:38;;;;;;;2.90;2.20;;;17.90;33.00;;;;;;8266823;28;20034;-47
2020/12/05 14:01:39;;;;;;;3.17;2.45;;;17.90;33.00;;;;;;8292003;28;20036;-47
2020/12/05 14:05:39;;;;;;;3.53;2.30;;;17.90;33.10;;;;;;8295239;28;20045;-46
2020/12/05 14:09:40;;;;;;;3.33;2.67;;;17.90;33.10;;;;;;8289520;28;20033;-46
2020/12/05 14:13:40;;;;;;;3.57;2.33;;;17.90;33.10;;;;;;8259791;28;20391;-47
2020/12/05 14:17:41;;;;;;;3.27;2.53;;;17.90;33.00;;;;;;8290934;28;20486;-46
2020/12/05 14:21:41;;;;;;;3.77;2.60;;;18.00;33.10;;;;;;8316994;28;20064;-47
2020/12/05 14:25:42;;;;;;;3.60;2.43;;;18.00;33.10;;;;;;8263565;28;20503;-47
2020/12/05 14:29:42;;;;;;;3.37;2.40;;;18.00;33.10;;;;;;8259494;28;20041;-47
2020/12/05 14:33:43;;;;;;;2.93;2.30;;;18.00;33.00;;;;;;8260019;28;20149;-47
2020/12/05 14:37:43;;;;;;;3.00;2.20;;;18.00;33.00;;;;;;8281138;28;20027;-46
2020/12/05 14:41:46;;;;;;;3.10;2.20;;;18.00;33.00;;;;;;8282345;28;20022;-46
2020/12/05 14:45:47;;;;;;;2.83;2.20;;;18.10;33.00;;;;;;8286807;28;20039;-47
2020/12/05 14:49:47;;;;;;;2.83;2.20;;;18.10;33.00;;;;;;8259055;28;20085;-47
2020/12/05 14:53:48;;;;;;;3.03;2.40;;;18.10;33.00;;;;;;8259044;28;20487;-49
2020/12/05 14:57:48;;;;;;;2.97;2.33;;;18.00;33.00;;;;;;8257238;28;20042;-45
2020/12/05 15:01:50;;;;;;;3.63;2.93;;;18.10;33.00;;;;;;8307203;28;20053;-47
2020/12/05 15:05:51;;;;;;;3.50;2.50;;;18.00;33.00;;;;;;8284504;28;20078;-46
2020/12/05 15:09:52;;;;;;;3.90;2.37;;;18.00;33.00;;;;;;8290918;28;20042;-47
2020/12/05 15:13:54;;;;;;;4.10;2.60;;;18.00;33.00;;;;;;8296543;28;20046;-46
2020/12/05 15:17:54;;;;;;;;;;;18.00;33.00;;;;;;8301699;28;20423;-46
2020/12/05 15:21:55;;;;;;;3.60;2.25;;;17.90;33.00;;;;;;8271189;28;19976;-45
2020/12/05 15:25:56;;;;;;;3.37;2.70;;;17.90;33.10;;;;;;8297142;28;20062;-47
2020/12/05 15:29:57;;;;;;;;;;;17.90;33.10;;;;;;8296787;28;20027;-47
2020/12/05 15:33:57;;;;;;;2.77;2.10;;;17.90;33.10;;;;;;8298863;28;19952;-48
2020/12/05 15:37:58;;;;;;;3.20;2.73;;;17.90;33.10;;;;;;8295993;28;20495;-46
2020/12/05 15:41:58;;;;;;;3.30;2.30;;;17.90;33.10;;;;;;8296149;28;20040;-46
2020/12/05 15:45:59;;;;;;;2.77;2.30;;;17.90;33.20;;;;;;8265189;28;20050;-47
2020/12/05 15:50:00;;;;;;;3.80;2.33;;;17.80;33.20;;;;;;8275999;28;20036;-46
2020/12/05 15:54:01;;;;;;;3.33;2.33;;;17.90;33.20;;;;;;8279057;28;20046;-47
2020/12/05 15:58:01;;;;;;;3.40;2.67;;;17.90;33.20;;;;;;8310458;28;20120;-46
2020/12/05 16:02:02;;;;;;;4.03;2.97;;;17.90;33.20;;;;;;8279512;28;20049;-47
2020/12/05 16:06:02;;;;;;;3.03;2.57;;;17.90;33.20;;;;;;8283947;28;20487;-47
2020/12/05 16:10:03;;;;;;;3.53;2.47;;;17.90;33.10;;;;;;8292733;28;20030;-46
2020/12/05 16:14:04;;;;;;;3.37;2.57;;;17.90;33.10;;;;;;8262414;28;20042;-46
2020/12/05 16:18:05;;;;;;;3.80;2.70;;;17.90;33.10;;;;;;8262569;28;20269;-47
2020/12/05 16:22:05;;;;;;;8.73;4.97;;;17.90;33.20;;;;;;8290149;28;20033;-46
2020/12/05 16:26:06;;;;;;;13.17;5.90;;;17.90;33.50;;;;;;8296757;28;20041;-47
2020/12/05 16:30:07;;;;;;;12.23;5.23;;;18.00;33.70;;;;;;8306947;28;20038;-46
2020/12/05 16:34:08;;;;;;;9.93;4.80;;;18.00;34.10;;;;;;8269944;28;20488;-46
2020/12/05 16:38:08;;;;;;;10.13;4.87;;;18.10;34.00;;;;;;8261746;28;20133;-46
2020/12/05 16:42:10;;;;;;;8.13;4.40;;;18.10;33.90;;;;;;8262489;28;20281;-47
2020/12/05 16:46:11;;;;;;;9.45;4.53;;;18.10;33.80;;;;;;8294524;28;20049;-47
2020/12/05 16:50:12;;;;;;;9.30;4.40;;;18.00;33.60;;;;;;8305449;28;20092;-47
2020/12/05 16:54:12;;;;;;;11.20;5.20;;;18.10;33.60;;;;;;8293002;28;20352;-47
2020/12/05 16:58:13;;;;;;;8.17;4.47;;;18.00;33.50;;;;;;8315469;28;20372;-46
2020/12/05 17:02:14;;;;;;;8.90;4.67;;;18.00;33.40;;;;;;8297652;28;20046;-47
2020/12/05 17:06:14;;;;;;;9.73;5.20;;;18.00;33.40;;;;;;8315201;28;20410;-47
2020/12/05 17:10:15;;;;;;;9.17;4.27;;;18.00;33.40;;;;;;8272720;28;20085;-46
2020/12/05 17:14:16;;;;;;;7.20;3.97;;;18.00;33.50;;;;;;8261221;28;20066;-47
2020/12/05 17:18:16;;;;;;;9.43;4.40;;;17.90;33.90;;;;;;8261703;28;20053;-50
2020/12/05 17:22:17;;;;;;;8.47;4.90;;;17.90;33.40;;;;;;8295441;28;20038;-46
2020/12/05 17:26:18;;;;;;;9.03;4.40;;;17.90;33.40;;;;;;8268943;28;20074;-47
2020/12/05 17:30:19;;;;;;;9.68;4.55;;;17.90;33.40;;;;;;8273772;28;20038;-46
2020/12/05 17:34:19;;;;;;;8.90;4.20;;;17.90;33.40;;;;;;8293818;28;20037;-47
2020/12/05 17:38:20;;;;;;;7.03;4.53;;;17.90;33.40;;;;;;8297126;28;20040;-47
2020/12/05 17:42:21;;;;;;;5.43;4.30;;;17.90;33.40;;;;;;8292486;28;20052;-47
2020/12/05 17:46:22;;;;;;;;;;;17.90;33.40;;;;;;8309278;28;20053;-49
2020/12/05 17:50:22;;;;;;;8.88;4.15;;;17.90;33.40;;;;;;8316194;28;20010;-46
2020/12/05 17:54:23;;;;;;;6.80;4.33;;;17.90;33.30;;;;;;8296542;28;20030;-48
2020/12/05 17:58:23;;;;;;;5.67;3.90;;;17.90;33.40;;;;;;8313772;28;20038;-47
2020/12/05 18:02:24;;;;;;;6.87;4.00;;;17.90;33.30;;;;;;8308392;28;20041;-47
2020/12/05 18:06:25;;;;;;;5.57;3.93;;;18.00;33.40;;;;;;8288849;28;20050;-47
2020/12/05 18:10:25;;;;;;;5.90;4.07;;;18.00;33.40;;;;;;8282276;28;21359;-46
2020/12/05 18:14:26;;;;;;;8.20;4.40;;;18.00;33.30;;;;;;8280390;28;20025;-49
2020/12/05 18:18:27;;;;;;;6.20;4.30;;;18.00;33.30;;;;;;8290486;28;20064;-49
2020/12/05 18:22:28;;;;;;;8.40;3.73;;;18.00;33.30;;;;;;8291696;28;20070;-47
2020/12/05 18:26:28;;;;;;;8.57;4.37;;;18.00;33.30;;;;;;8275001;28;20415;-47
2020/12/05 18:30:30;;;;;;;7.27;4.60;;;18.00;33.30;;;;;;8286179;28;20041;-45
2020/12/05 18:34:30;;;;;;;;;;;18.00;33.30;;;;;;8268498;28;20041;-48
2020/12/05 18:38:31;;;;;;;5.30;3.80;;;18.00;33.30;;;;;;8293164;28;20011;-48
2020/12/05 18:42:32;;;;;;;6.03;4.20;;;18.00;33.30;;;;;;8296139;28;20076;-47
2020/12/05 18:46:32;;;;;;;6.75;4.03;;;18.00;33.30;;;;;;8299510;28;20037;-47
2020/12/05 18:50:33;;;;;;;6.67;4.47;;;18.10;33.30;;;;;;8299966;28;20411;-49
2020/12/05 18:54:33;;;;;;;4.93;3.70;;;18.00;33.20;;;;;;8294721;28;20030;-47
2020/12/05 18:58:34;;;;;;;4.87;3.77;;;18.00;33.20;;;;;;8274144;28;20049;-47
2020/12/05 19:02:35;;;;;;;6.03;3.57;;;18.00;33.20;;;;;;8279716;28;20233;-46
2020/12/05 19:06:35;;;;;;;5.93;4.13;;;18.00;33.20;;;;;;8293039;28;20446;-48
2020/12/05 19:10:36;;;;;;;5.13;3.70;;;18.00;33.20;;;;;;8297088;28;20073;-47
2020/12/05 19:14:36;;;;;;;7.63;4.07;;;18.00;33.80;;;;;;8279057;28;20035;-49
2020/12/05 19:18:37;;;;;;;4.97;3.60;;;17.90;33.20;;;;;;8262587;28;20035;-46
2020/12/05 19:22:37;;;;;;;4.27;3.73;;;17.90;33.20;;;;;;8268521;28;20141;-46
2020/12/05 19:26:38;;;;;;;5.50;3.87;;;17.90;33.30;;;;;;8263859;28;20047;-47
2020/12/05 19:30:39;;;;;;;5.03;3.23;;;17.90;33.30;;;;;;8262682;28;20395;-46
2020/12/05 19:34:39;;;;;;;5.03;3.80;;;17.90;33.30;;;;;;8283775;28;20065;-46
2020/12/05 19:38:40;;;;;;;7.57;3.90;;;17.90;33.40;;;;;;8309861;28;20034;-47
2020/12/05 19:42:40;;;;;;;5.97;3.83;;;17.90;33.40;;;;;;8290742;28;20034;-47
2020/12/05 19:46:45;;;;;;;6.60;3.57;;;17.90;33.40;;;;;;8273937;28;20065;-46
2020/12/05 19:50:46;;;;;;;5.47;3.65;;;17.80;33.40;;;;;;8270026;28;20039;-46
2020/12/05 19:54:46;;;;;;;5.47;3.93;;;17.90;33.40;;;;;;8238117;28;20045;-47
2020/12/05 19:58:47;;;;;;;5.07;4.10;;;17.90;33.40;;;;;;8288828;28;20483;-46
2020/12/05 20:02:47;;;;;;;5.43;3.67;;;17.90;33.40;;;;;;8280497;28;20501;-47
2020/12/05 20:06:48;;;;;;;4.93;3.20;;;17.90;33.30;;;;;;8293630;28;20046;-47
2020/12/05 20:10:51;;;;;;;5.27;3.93;;;17.90;33.30;;;;;;8284360;28;20467;-47
2020/12/05 20:14:51;;;;;;;4.63;2.80;;;17.90;33.30;;;;;;8266811;28;20138;-47
2020/12/05 20:18:55;;;;;;;5.20;3.47;;;17.90;33.30;;;;;;8295472;28;20635;-47
2020/12/05 20:22:55;;;;;;;4.53;3.42;;;17.90;33.30;;;;;;8314771;28;20058;-46
2020/12/05 20:27:00;;;;;;;4.63;3.53;;;17.90;33.30;;;;;;8281329;28;20046;-47
2020/12/05 20:31:01;;;;;;;6.25;4.03;;;17.90;33.90;;;;;;8260071;28;20040;-48
2020/12/05 20:35:02;;;;;;;5.03;3.70;;;18.00;33.40;;;;;;8266539;28;20494;-46
2020/12/05 20:39:03;;;;;;;4.53;3.33;;;18.00;33.40;;;;;;8262411;28;20266;-46
2020/12/05 20:43:04;;;;;;;4.87;3.60;;;18.00;33.40;;;;;;8259954;28;20042;-47
2020/12/05 20:47:04;;;;;;;5.25;3.53;;;18.00;33.30;;;;;;8262085;28;20515;-47
2020/12/05 20:51:05;;;;;;;4.30;3.20;;;18.00;33.40;;;;;;8265657;28;20035;-47
2020/12/05 20:55:06;;;;;;;3.97;2.80;;;18.00;33.40;;;;;;8264952;28;20050;-48
2020/12/05 20:59:06;;;;;;;5.03;3.40;;;18.00;33.30;;;;;;8313747;28;20037;-47